Time;durP1;ratioP1;P1;durP2;ratioP2;P2;SDS_P1;SDS_P2;PMS_P1;PMS_P2;Temp;Humidity;BMP_temperature;BMP_pressure;BME280_temperature;BME280_humidity;BME280_pressure;Samples;Min_cycle;Max_cycle;Signal;HPM_P1;HPM_P2
2022/03/07 00:01:09;;;;;;;0.50;0.50;;;1.90;99.90;;;;;;5069332;28;20474;-67
2022/03/07 00:03:56;;;;;;;0.50;0.50;;;1.90;99.90;;;;;;5070764;28;20941;-68
2022/03/07 00:06:43;;;;;;;0.40;0.40;;;1.90;99.90;;;;;;5068063;28;20494;-67
2022/03/07 00:09:30;;;;;;;0.57;0.57;;;1.90;99.90;;;;;;5070643;28;20421;-67
2022/03/07 00:12:17;;;;;;;0.40;0.40;;;2.10;99.90;;;;;;5072021;28;20439;-67
2022/03/07 00:15:06;;;;;;;0.43;0.43;;;1.90;99.90;;;;;;5071497;28;20424;-67
2022/03/07 00:17:53;;;;;;;0.50;0.50;;;2.00;99.90;;;;;;5071078;28;20464;-67
2022/03/07 00:20:40;;;;;;;0.40;0.40;;;1.90;99.90;;;;;;5072014;28;20424;-67
2022/03/07 00:23:26;;;;;;;1.07;1.07;;;1.90;99.90;;;;;;5064757;28;20428;-68
2022/03/07 00:26:13;;;;;;;0.50;0.50;;;1.90;99.90;;;;;;5054592;28;20468;-67
2022/03/07 00:29:00;;;;;;;1.87;1.83;;;1.90;99.90;;;;;;5054443;28;20495;-67
2022/03/07 00:31:49;;;;;;;0.40;0.40;;;1.90;99.90;;;;;;5053825;28;20467;-67
2022/03/07 00:34:36;;;;;;;0.50;0.50;;;1.80;99.90;;;;;;5064925;28;20440;-67
2022/03/07 00:37:23;;;;;;;0.40;0.40;;;1.80;99.90;;;;;;5073094;28;20471;-67
2022/03/07 00:40:11;;;;;;;0.40;0.40;;;1.70;99.90;;;;;;5074738;28;20423;-67
2022/03/07 00:42:58;;;;;;;0.60;0.60;;;1.60;99.90;;;;;;5074660;28;20427;-67
2022/03/07 00:45:44;;;;;;;0.40;0.40;;;1.60;99.90;;;;;;5073793;28;20444;-67
2022/03/07 00:48:33;;;;;;;1.80;1.63;;;1.70;99.90;;;;;;5074507;28;20423;-67
2022/03/07 00:51:20;;;;;;;0.50;0.50;;;1.60;99.90;;;;;;5073607;28;20478;-67
2022/03/07 00:54:07;;;;;;;0.50;0.50;;;1.50;99.90;;;;;;5073517;28;20424;-67
2022/03/07 00:56:53;;;;;;;0.40;0.40;;;1.50;99.90;;;;;;5073395;28;20463;-68
2022/03/07 00:59:40;;;;;;;0.50;0.50;;;1.50;99.90;;;;;;5074167;28;20482;-67
2022/03/07 01:02:27;;;;;;;0.50;0.50;;;1.40;99.90;;;;;;5072985;28;20478;-67
2022/03/07 01:05:16;;;;;;;0.50;0.50;;;1.40;99.90;;;;;;5073373;28;20557;-67
2022/03/07 01:08:03;;;;;;;1.63;1.63;;;1.30;99.90;;;;;;5073155;28;20427;-67
2022/03/07 01:10:50;;;;;;;0.50;0.50;;;1.20;99.90;;;;;;5073413;28;20963;-67
2022/03/07 01:13:37;;;;;;;0.87;0.87;;;1.10;99.90;;;;;;5074006;28;20848;-67
2022/03/07 01:16:24;;;;;;;0.50;0.50;;;0.90;99.90;;;;;;5072725;28;20439;-67
2022/03/07 01:19:11;;;;;;;0.40;0.40;;;0.80;99.90;;;;;;5073517;28;20822;-67
2022/03/07 01:21:59;;;;;;;0.47;0.47;;;0.70;99.90;;;;;;5073603;28;20424;-67
2022/03/07 01:24:46;;;;;;;0.63;0.63;;;0.60;99.90;;;;;;5072631;28;20510;-67
2022/03/07 01:27:33;;;;;;;0.60;0.60;;;0.50;99.90;;;;;;5072827;28;20505;-67
2022/03/07 01:30:20;;;;;;;0.50;0.50;;;0.40;99.90;;;;;;5072886;28;20412;-67
2022/03/07 01:33:07;;;;;;;0.40;0.40;;;0.30;99.90;;;;;;5072131;28;20443;-67
2022/03/07 01:35:54;;;;;;;0.50;0.50;;;0.40;99.90;;;;;;5052914;28;20449;-67
2022/03/07 01:38:42;;;;;;;0.40;0.40;;;0.30;99.90;;;;;;5054275;28;20465;-67
2022/03/07 01:41:29;;;;;;;0.50;0.50;;;0.10;99.90;;;;;;5055054;28;20425;-67
2022/03/07 01:44:18;;;;;;;0.50;0.50;;;0.00;99.90;;;;;;5054790;28;20452;-67
2022/03/07 01:47:05;;;;;;;0.40;0.40;;;0.00;99.90;;;;;;5095608;22;20499;-64
2022/03/07 01:49:52;;;;;;;0.40;0.40;;;0.00;99.90;;;;;;5096935;28;20426;-65
2022/03/07 01:52:41;;;;;;;0.40;0.40;;;0.00;99.90;;;;;;5096401;28;20419;-65
2022/03/07 01:55:30;;;;;;;0.50;0.50;;;-0.10;99.90;;;;;;5099639;28;20445;-65
2022/03/07 01:58:16;;;;;;;0.40;0.40;;;-0.10;99.90;;;;;;5099037;28;20521;-64
2022/03/07 02:01:03;;;;;;;0.40;0.40;;;-0.30;99.90;;;;;;5096313;28;20830;-65
2022/03/07 02:03:50;;;;;;;1.17;1.17;;;-0.30;99.90;;;;;;5095360;28;20422;-65
2022/03/07 02:06:38;;;;;;;0.40;0.40;;;-0.30;99.90;;;;;;5095164;28;21083;-65
2022/03/07 02:09:25;;;;;;;0.40;0.40;;;-0.40;99.90;;;;;;5096972;28;20447;-65
2022/03/07 02:12:14;;;;;;;0.47;0.47;;;-0.40;99.90;;;;;;5096633;28;20450;-65
2022/03/07 02:15:00;;;;;;;0.40;0.40;;;-0.30;99.90;;;;;;5086065;28;20467;-65
2022/03/07 02:17:47;;;;;;;0.50;0.50;;;-0.20;99.90;;;;;;5074905;28;20467;-65
2022/03/07 02:20:34;;;;;;;0.40;0.40;;;-0.10;99.90;;;;;;5094629;28;20442;-65
2022/03/07 02:23:23;;;;;;;0.40;0.40;;;0.00;99.90;;;;;;5096038;28;20423;-65
2022/03/07 02:26:11;;;;;;;0.40;0.40;;;0.20;99.90;;;;;;5096423;28;20476;-65
2022/03/07 02:28:58;;;;;;;0.40;0.40;;;0.20;99.90;;;;;;5096458;28;20419;-64
2022/03/07 02:31:45;;;;;;;0.40;0.40;;;0.20;99.90;;;;;;5095132;28;20422;-64
2022/03/07 02:34:32;;;;;;;0.40;0.40;;;0.20;99.90;;;;;;5094934;28;20423;-64
2022/03/07 02:37:19;;;;;;;0.40;0.40;;;0.30;99.90;;;;;;5092950;28;20520;-65
2022/03/07 02:40:09;;;;;;;0.40;0.40;;;0.40;99.90;;;;;;5094325;28;20430;-65
2022/03/07 02:42:55;;;;;;;0.50;0.50;;;0.40;99.90;;;;;;5092196;28;20935;-65
2022/03/07 02:45:43;;;;;;;0.40;0.40;;;0.40;99.90;;;;;;5093546;28;20423;-65
2022/03/07 02:48:30;;;;;;;0.40;0.40;;;0.50;99.90;;;;;;5094240;28;20961;-65
2022/03/07 02:51:17;;;;;;;0.40;0.40;;;0.50;99.90;;;;;;5092419;28;20419;-64
2022/03/07 02:54:05;;;;;;;0.40;0.40;;;0.50;99.90;;;;;;5092795;28;20426;-64
2022/03/07 02:56:53;;;;;;;0.50;0.50;;;0.50;99.90;;;;;;5092372;28;20442;-66
2022/03/07 02:59:40;;;;;;;0.40;0.40;;;0.50;99.90;;;;;;5091923;28;20446;-65
2022/03/07 03:02:27;;;;;;;0.40;0.40;;;0.30;99.90;;;;;;5092239;28;20423;-65
2022/03/07 03:05:14;;;;;;;2.70;2.50;;;0.30;99.90;;;;;;5092302;28;20513;-64
2022/03/07 03:08:01;;;;;;;0.40;0.40;;;0.20;99.90;;;;;;5092055;28;20943;-65
2022/03/07 03:10:48;;;;;;;0.40;0.40;;;0.30;99.90;;;;;;5092730;28;20738;-65
2022/03/07 03:13:36;;;;;;;0.40;0.40;;;0.30;99.90;;;;;;5091890;28;20419;-65
2022/03/07 03:16:23;;;;;;;0.60;0.60;;;0.50;99.90;;;;;;5091962;28;20442;-65
2022/03/07 03:19:10;;;;;;;0.40;0.40;;;0.70;99.90;;;;;;5092151;28;20518;-64
2022/03/07 03:21:56;;;;;;;0.40;0.40;;;0.80;99.90;;;;;;5092291;28;20477;-65
2022/03/07 03:24:43;;;;;;;0.40;0.40;;;1.00;99.90;;;;;;5092315;28;20951;-64
2022/03/07 03:27:30;;;;;;;0.40;0.40;;;1.00;99.90;;;;;;5092137;28;20462;-64
2022/03/07 03:30:19;;;;;;;0.60;0.60;;;1.00;99.90;;;;;;5091857;28;20423;-64
2022/03/07 03:33:06;;;;;;;0.40;0.40;;;0.90;99.90;;;;;;5091421;28;20432;-64
2022/03/07 03:35:52;;;;;;;0.40;0.40;;;0.70;99.90;;;;;;5072160;28;20946;-65
2022/03/07 03:38:39;;;;;;;0.40;0.40;;;0.40;99.90;;;;;;5070970;28;20487;-65
2022/03/07 03:41:26;;;;;;;0.40;0.40;;;0.20;99.90;;;;;;5070421;28;20419;-64
2022/03/07 03:44:13;;;;;;;0.40;0.40;;;0.00;99.90;;;;;;5071620;28;20423;-66
2022/03/07 03:47:01;;;;;;;0.40;0.40;;;-0.10;99.90;;;;;;5070727;28;20452;-65
2022/03/07 03:49:48;;;;;;;0.40;0.40;;;-0.20;99.90;;;;;;5071325;28;20424;-65
2022/03/07 03:52:35;;;;;;;0.40;0.40;;;-0.30;99.90;;;;;;5070390;28;20421;-65
2022/03/07 03:55:22;;;;;;;0.40;0.40;;;-0.40;99.90;;;;;;5070772;28;20446;-65
2022/03/07 03:58:09;;;;;;;1.73;1.73;;;-0.50;99.90;;;;;;5071763;28;21074;-65
2022/03/07 04:00:56;;;;;;;0.50;0.50;;;-0.60;99.90;;;;;;5071147;28;20506;-66
2022/03/07 04:03:44;;;;;;;0.40;0.40;;;-0.60;99.90;;;;;;5070484;28;20443;-66
2022/03/07 04:06:31;;;;;;;0.40;0.40;;;-0.70;99.90;;;;;;5071077;28;20443;-65
2022/03/07 04:09:19;;;;;;;0.40;0.40;;;-0.80;99.90;;;;;;5070641;28;20940;-65
2022/03/07 04:12:07;;;;;;;0.40;0.40;;;-0.80;99.90;;;;;;5072072;28;20474;-65
2022/03/07 04:14:54;;;;;;;0.40;0.40;;;-0.90;99.90;;;;;;5072618;28;20465;-66
2022/03/07 04:17:42;;;;;;;0.50;0.50;;;-0.90;99.90;;;;;;5073932;28;20456;-65
2022/03/07 04:20:30;;;;;;;0.40;0.40;;;-0.90;99.90;;;;;;5094359;28;20463;-65
2022/03/07 04:23:20;;;;;;;0.40;0.40;;;-0.90;99.90;;;;;;5094481;28;20942;-65
2022/03/07 04:26:07;;;;;;;0.40;0.40;;;-0.90;99.90;;;;;;5095010;28;20939;-65
2022/03/07 04:28:54;;;;;;;0.40;0.40;;;-0.90;99.90;;;;;;5094731;28;20426;-65
2022/03/07 04:31:44;;;;;;;0.40;0.40;;;-0.90;99.90;;;;;;5094707;28;20423;-65
2022/03/07 04:34:30;;;;;;;0.50;0.50;;;-1.00;99.90;;;;;;5084625;28;20428;-65
2022/03/07 04:37:19;;;;;;;0.40;0.40;;;-0.90;99.90;;;;;;5074676;28;20439;-66
2022/03/07 04:40:07;;;;;;;0.50;0.50;;;-1.00;99.90;;;;;;5074570;28;20976;-65
2022/03/07 04:42:56;;;;;;;0.40;0.40;;;-1.00;99.90;;;;;;5074430;28;20963;-66
2022/03/07 04:45:42;;;;;;;1.03;1.03;;;-0.90;99.90;;;;;;5073965;28;20563;-66
2022/03/07 04:48:29;;;;;;;0.50;0.50;;;-0.90;99.90;;;;;;5075012;28;20416;-65
2022/03/07 04:51:16;;;;;;;0.40;0.40;;;-0.80;99.90;;;;;;5075759;28;20423;-65
2022/03/07 04:54:05;;;;;;;0.40;0.40;;;-0.70;99.90;;;;;;5076565;28;20421;-65
2022/03/07 04:56:52;;;;;;;0.67;0.67;;;-0.60;99.90;;;;;;5085994;28;20451;-65
2022/03/07 04:59:38;;;;;;;0.40;0.40;;;-0.60;99.90;;;;;;5086001;28;20460;-65
2022/03/07 05:02:25;;;;;;;0.40;0.40;;;-0.60;99.90;;;;;;5086836;28;20428;-65
2022/03/07 05:05:12;;;;;;;0.40;0.40;;;-0.70;99.90;;;;;;5086215;28;20425;-65
2022/03/07 05:07:59;;;;;;;0.80;0.80;;;-0.80;99.90;;;;;;5080796;28;20497;-65
2022/03/07 05:10:48;;;;;;;0.40;0.40;;;-1.10;99.90;;;;;;5076684;28;20932;-65
2022/03/07 05:13:35;;;;;;;0.40;0.40;;;-1.00;99.90;;;;;;5075254;28;20798;-65
2022/03/07 05:16:21;;;;;;;0.40;0.40;;;-1.00;99.90;;;;;;5074553;28;20621;-65
2022/03/07 05:19:08;;;;;;;0.40;0.40;;;-1.00;99.90;;;;;;5073979;28;20492;-65
2022/03/07 05:21:55;;;;;;;0.40;0.40;;;-1.00;99.90;;;;;;5073698;28;20447;-65
2022/03/07 05:24:42;;;;;;;0.40;0.40;;;-1.00;99.90;;;;;;5073278;28;20435;-66
2022/03/07 05:27:30;;;;;;;1.43;1.17;;;-0.90;99.90;;;;;;5073968;28;20533;-65
2022/03/07 05:30:19;;;;;;;0.40;0.40;;;-0.90;99.90;;;;;;5073893;28;20428;-65
2022/03/07 05:33:06;;;;;;;0.40;0.40;;;-0.90;99.90;;;;;;5074427;28;20434;-66
2022/03/07 05:35:53;;;;;;;0.40;0.40;;;-0.90;99.90;;;;;;5073553;28;21063;-65
2022/03/07 05:38:40;;;;;;;0.40;0.40;;;-1.10;99.90;;;;;;5073311;28;20471;-65
2022/03/07 05:41:27;;;;;;;0.40;0.40;;;-1.00;99.90;;;;;;5072899;28;20970;-65
2022/03/07 05:44:15;;;;;;;0.40;0.40;;;-1.00;99.90;;;;;;5073197;28;20424;-65
2022/03/07 05:47:03;;;;;;;0.60;0.60;;;-1.00;99.90;;;;;;5072488;28;20499;-66
2022/03/07 05:49:49;;;;;;;0.50;0.50;;;-1.00;99.90;;;;;;5072812;28;20450;-65
2022/03/07 05:52:36;;;;;;;0.50;0.50;;;-1.00;99.90;;;;;;5072479;28;20939;-66
2022/03/07 05:55:23;;;;;;;0.40;0.40;;;-1.00;99.90;;;;;;5072562;28;20420;-67
2022/03/07 05:58:10;;;;;;;0.40;0.40;;;-1.00;99.90;;;;;;5071843;28;20475;-66
2022/03/07 06:00:58;;;;;;;0.50;0.50;;;-1.00;99.90;;;;;;5072369;28;20438;-65
2022/03/07 06:03:45;;;;;;;0.60;0.60;;;-1.00;99.90;;;;;;5072990;28;21013;-65
2022/03/07 06:06:32;;;;;;;2.57;2.47;;;-0.90;99.90;;;;;;5073046;28;20460;-65
2022/03/07 06:09:19;;;;;;;0.40;0.40;;;-0.90;99.90;;;;;;5073265;28;20452;-66
2022/03/07 06:12:07;;;;;;;0.40;0.40;;;-0.80;99.90;;;;;;5072608;28;20434;-65
2022/03/07 06:14:54;;;;;;;0.60;0.60;;;-0.70;99.90;;;;;;5072482;28;20456;-66
2022/03/07 06:17:51;;;;;;;2.77;1.23;;;-0.70;99.90;;;;;;5072031;28;20462;-66
2022/03/07 06:20:38;;;;;;;0.57;0.57;;;-0.50;99.90;;;;;;5072328;28;20425;-66
2022/03/07 06:23:25;;;;;;;0.40;0.40;;;-0.50;99.90;;;;;;5073035;28;20431;-66
2022/03/07 06:26:12;;;;;;;0.40;0.40;;;-0.50;99.90;;;;;;5072256;28;20424;-66
2022/03/07 06:29:00;;;;;;;1.50;1.00;;;-0.40;99.90;;;;;;5072415;28;20419;-66
2022/03/07 06:31:47;;;;;;;1.10;1.10;;;-0.40;99.90;;;;;;5072488;28;20494;-66
2022/03/07 06:34:35;;;;;;;0.50;0.50;;;-0.30;99.90;;;;;;5084332;28;20442;-65
2022/03/07 06:37:23;;;;;;;0.40;0.40;;;-0.20;99.90;;;;;;5093465;28;20959;-66
2022/03/07 06:40:10;;;;;;;0.50;0.50;;;-0.30;99.90;;;;;;5093573;28;20466;-66
2022/03/07 06:42:58;;;;;;;0.40;0.40;;;-0.30;99.90;;;;;;5093000;28;20426;-65
2022/03/07 06:45:45;;;;;;;0.50;0.50;;;-0.30;99.90;;;;;;5091677;28;20423;-66
2022/03/07 06:48:33;;;;;;;1.57;1.33;;;-0.20;99.90;;;;;;5095387;28;20454;-66
2022/03/07 06:51:21;;;;;;;0.40;0.40;;;-0.10;99.90;;;;;;5094607;28;20434;-65
2022/03/07 06:54:08;;;;;;;0.60;0.60;;;-0.10;99.90;;;;;;5094968;28;20963;-65
2022/03/07 06:56:55;;;;;;;0.63;0.63;;;0.00;99.90;;;;;;5095262;28;20441;-65
2022/03/07 06:59:42;;;;;;;0.70;0.67;;;0.00;99.90;;;;;;5077872;28;20467;-66
2022/03/07 07:02:29;;;;;;;1.70;1.17;;;0.00;99.90;;;;;;5073342;28;20486;-66
2022/03/07 07:05:16;;;;;;;0.70;0.70;;;0.10;99.90;;;;;;5073570;28;20455;-65
2022/03/07 07:08:05;;;;;;;0.40;0.40;;;0.10;99.90;;;;;;5069986;28;20451;-64
2022/03/07 07:10:52;;;;;;;5.40;2.27;;;0.10;99.90;;;;;;5073304;28;20506;-65
2022/03/07 07:13:39;;;;;;;0.40;0.40;;;0.20;99.90;;;;;;5073327;28;20777;-64
2022/03/07 07:16:26;;;;;;;0.83;0.80;;;0.30;99.90;;;;;;5072437;28;20451;-64
2022/03/07 07:19:12;;;;;;;0.57;0.57;;;0.30;99.90;;;;;;5072717;28;20471;-65
2022/03/07 07:21:59;;;;;;;0.40;0.40;;;0.40;99.90;;;;;;5073159;28;21214;-65
2022/03/07 07:24:47;;;;;;;1.87;1.27;;;0.50;99.90;;;;;;5074290;28;20424;-65
2022/03/07 07:27:35;;;;;;;0.40;0.40;;;0.60;99.90;;;;;;5075005;28;20444;-65
2022/03/07 07:30:23;;;;;;;0.83;0.83;;;0.70;99.90;;;;;;5073796;28;20521;-65
2022/03/07 07:33:10;;;;;;;0.60;0.60;;;0.80;99.90;;;;;;5073265;28;20511;-65
2022/03/07 07:35:57;;;;;;;0.50;0.50;;;0.80;99.90;;;;;;5073809;28;20424;-66
2022/03/07 07:38:44;;;;;;;0.40;0.40;;;0.90;99.90;;;;;;5073529;28;20872;-66
2022/03/07 07:41:32;;;;;;;0.40;0.40;;;1.00;99.90;;;;;;5073003;28;20473;-66
2022/03/07 07:44:19;;;;;;;7.70;2.00;;;1.00;99.90;;;;;;5073234;28;20434;-65
2022/03/07 07:47:07;;;;;;;1.53;1.30;;;1.20;99.90;;;;;;5073840;28;20460;-66
2022/03/07 07:49:54;;;;;;;2.40;1.63;;;1.10;99.90;;;;;;5076500;28;20513;-66
2022/03/07 07:52:41;;;;;;;13.03;9.57;;;1.30;99.90;;;;;;5079422;28;20431;-66
2022/03/07 07:55:28;;;;;;;2.13;1.93;;;1.30;99.90;;;;;;5082472;28;21081;-66
2022/03/07 07:58:16;;;;;;;1.37;1.13;;;1.40;99.90;;;;;;5082873;28;20444;-67
2022/03/07 08:01:03;;;;;;;3.73;0.73;;;1.40;99.90;;;;;;5086960;28;20428;-65
2022/03/07 08:03:50;;;;;;;4.97;3.80;;;1.50;99.90;;;;;;5080678;28;20446;-65
2022/03/07 08:06:37;;;;;;;2.23;1.70;;;1.50;99.90;;;;;;5077999;28;20470;-65
2022/03/07 08:09:25;;;;;;;0.40;0.40;;;1.60;99.90;;;;;;5077476;28;20423;-65
2022/03/07 08:12:17;;;;;;;0.80;0.80;;;1.70;99.90;;;;;;5075733;28;20431;-65
2022/03/07 08:15:11;;;;;;;0.40;0.40;;;1.80;99.90;;;;;;5076303;28;20967;-66
2022/03/07 08:17:58;;;;;;;1.50;1.40;;;1.80;99.90;;;;;;5076547;28;20440;-65
2022/03/07 08:20:45;;;;;;;10.63;3.17;;;1.90;99.90;;;;;;5078166;28;20560;-66
2022/03/07 08:23:32;;;;;;;3.90;3.27;;;2.00;99.90;;;;;;5093318;28;20494;-65
2022/03/07 08:26:19;;;;;;;3.20;2.10;;;2.10;99.90;;;;;;5095720;28;20840;-65
2022/03/07 08:29:06;;;;;;;2.53;2.33;;;2.10;99.90;;;;;;5076041;28;20416;-65
2022/03/07 08:31:55;;;;;;;0.73;0.70;;;2.20;99.90;;;;;;5076196;28;20423;-66
2022/03/07 08:34:41;;;;;;;3.30;2.50;;;2.20;99.90;;;;;;5076778;28;20502;-65
2022/03/07 08:37:28;;;;;;;0.87;0.87;;;2.30;99.90;;;;;;5075230;28;20439;-65
2022/03/07 08:40:17;;;;;;;3.47;0.93;;;2.40;99.90;;;;;;5075205;28;20478;-65
2022/03/07 08:43:04;;;;;;;2.53;2.40;;;2.50;99.90;;;;;;5073520;28;20415;-65
2022/03/07 08:45:51;;;;;;;3.27;2.20;;;2.50;99.90;;;;;;5074785;28;20432;-65
2022/03/07 08:48:39;;;;;;;2.47;1.93;;;2.50;99.90;;;;;;5075693;28;20424;-65
2022/03/07 08:51:26;;;;;;;0.57;0.57;;;2.60;99.90;;;;;;5074265;28;20485;-66
2022/03/07 08:54:15;;;;;;;1.27;0.87;;;2.70;99.90;;;;;;5074331;28;20782;-66
2022/03/07 08:57:02;;;;;;;4.20;2.60;;;2.90;99.90;;;;;;5073895;28;20463;-66
2022/03/07 08:59:49;;;;;;;0.83;0.83;;;3.10;99.90;;;;;;5074986;28;20455;-66
2022/03/07 09:02:36;;;;;;;2.50;1.63;;;3.00;99.90;;;;;;5074760;28;20429;-65
2022/03/07 09:05:24;;;;;;;1.60;1.50;;;3.20;99.90;;;;;;5075992;28;20419;-65
2022/03/07 09:08:11;;;;;;;0.60;0.60;;;3.20;99.90;;;;;;5075412;28;20972;-66
2022/03/07 09:10:58;;;;;;;0.50;0.50;;;3.30;99.90;;;;;;5075693;28;20435;-65
2022/03/07 09:13:45;;;;;;;0.50;0.50;;;3.40;99.90;;;;;;5074572;28;20905;-65
2022/03/07 09:16:32;;;;;;;7.00;1.27;;;3.40;99.90;;;;;;5075817;28;20444;-66
2022/03/07 09:19:19;;;;;;;1.00;1.00;;;3.50;99.90;;;;;;5074663;28;21160;-66
2022/03/07 09:22:07;;;;;;;0.40;0.40;;;3.50;99.90;;;;;;5075381;28;20438;-65
2022/03/07 09:24:54;;;;;;;2.03;1.07;;;3.60;99.90;;;;;;5076152;28;20438;-65
2022/03/07 09:27:42;;;;;;;5.83;3.50;;;3.70;99.90;;;;;;5074116;28;20443;-65
2022/03/07 09:30:29;;;;;;;1.83;1.83;;;3.70;99.90;;;;;;5075180;28;20424;-66
2022/03/07 09:33:16;;;;;;;1.73;1.07;;;3.70;99.90;;;;;;5074664;28;20420;-66
2022/03/07 09:36:04;;;;;;;3.13;3.03;;;3.80;99.90;;;;;;5095348;28;20861;-65
2022/03/07 09:38:52;;;;;;;2.87;1.17;;;3.80;99.90;;;;;;5095820;28;20995;-66
2022/03/07 09:41:41;;;;;;;0.97;0.87;;;3.90;99.90;;;;;;5095432;28;20433;-66
2022/03/07 09:44:28;;;;;;;2.10;1.43;;;4.00;99.90;;;;;;5096019;28;20953;-66
2022/03/07 09:47:16;;;;;;;1.80;0.93;;;4.00;99.90;;;;;;5095819;28;20508;-65
2022/03/07 09:50:05;;;;;;;1.53;1.37;;;4.00;99.90;;;;;;5095132;28;20419;-66
2022/03/07 09:52:54;;;;;;;1.43;1.43;;;4.10;99.90;;;;;;5096075;28;20477;-65
2022/03/07 09:55:43;;;;;;;0.50;0.50;;;4.20;99.90;;;;;;5095747;28;20427;-65
2022/03/07 09:58:30;;;;;;;3.27;2.80;;;4.20;99.90;;;;;;5094905;28;20438;-65
2022/03/07 10:01:19;;;;;;;0.57;0.50;;;4.20;99.90;;;;;;5095917;28;20470;-65
2022/03/07 10:04:07;;;;;;;3.63;1.67;;;4.30;99.90;;;;;;5095274;28;20427;-65
2022/03/07 10:06:55;;;;;;;0.93;0.93;;;4.40;99.90;;;;;;5096002;28;20458;-65
2022/03/07 10:09:42;;;;;;;3.77;2.63;;;4.50;99.90;;;;;;5093931;28;20423;-65
2022/03/07 10:12:30;;;;;;;6.97;2.90;;;4.50;99.90;;;;;;5095174;28;20457;-65
2022/03/07 10:15:19;;;;;;;0.97;0.60;;;4.60;99.90;;;;;;5095694;28;20447;-66
2022/03/07 10:18:11;;;;;;;2.60;2.50;;;4.70;99.90;;;;;;5095437;28;20809;-65
2022/03/07 10:21:00;;;;;;;3.13;1.90;;;4.70;99.90;;;;;;5096016;28;20459;-65
2022/03/07 10:23:51;;;;;;;3.43;2.50;;;4.80;99.90;;;;;;5095951;28;20431;-65
2022/03/07 10:26:38;;;;;;;3.53;2.20;;;4.70;99.90;;;;;;5095755;28;20459;-66
2022/03/07 10:29:26;;;;;;;2.90;2.60;;;4.60;99.90;;;;;;5095357;28;21012;-65
2022/03/07 10:32:17;;;;;;;1.37;1.10;;;4.70;99.90;;;;;;5094340;28;20520;-66
2022/03/07 10:35:06;;;;;;;2.97;2.20;;;4.60;99.90;;;;;;5092424;28;20457;-65
2022/03/07 10:37:56;;;;;;;5.50;3.47;;;4.50;99.90;;;;;;5094795;28;20443;-66
2022/03/07 10:40:47;;;;;;;1.53;1.43;;;4.50;99.90;;;;;;5096260;28;20478;-65
2022/03/07 10:43:33;;;;;;;0.40;0.40;;;4.60;99.90;;;;;;5095156;28;20433;-65
2022/03/07 10:46:27;;;;;;;0.97;0.97;;;4.70;99.90;;;;;;5094928;28;20477;-65
2022/03/07 10:49:15;;;;;;;0.40;0.40;;;4.90;99.90;;;;;;5099889;28;20424;-65
2022/03/07 10:52:04;;;;;;;2.73;1.53;;;4.90;99.90;;;;;;5098148;28;20433;-66
2022/03/07 10:54:52;;;;;;;4.00;3.07;;;4.80;99.90;;;;;;5104216;28;20429;-65
2022/03/07 10:57:41;;;;;;;0.70;0.70;;;4.70;99.90;;;;;;5099828;28;20439;-65
2022/03/07 11:00:29;;;;;;;4.63;3.23;;;4.70;99.90;;;;;;5083281;28;20533;-66
2022/03/07 11:03:18;;;;;;;1.30;1.20;;;4.70;99.90;;;;;;5074317;28;20424;-65
2022/03/07 11:06:05;;;;;;;1.33;0.90;;;4.70;99.90;;;;;;5076747;28;20432;-65
2022/03/07 11:08:52;;;;;;;2.40;1.90;;;4.60;99.90;;;;;;5075327;28;20451;-66
2022/03/07 11:11:39;;;;;;;8.90;0.70;;;4.60;99.90;;;;;;5093421;28;20491;-65
2022/03/07 11:14:27;;;;;;;2.00;0.77;;;4.60;99.90;;;;;;5080495;28;20427;-66
2022/03/07 11:17:18;;;;;;;2.10;1.77;;;4.70;99.90;;;;;;5091612;28;20937;-65
2022/03/07 11:20:08;;;;;;;0.40;0.40;;;4.70;99.90;;;;;;5074231;28;20492;-65
2022/03/07 11:22:55;;;;;;;5.90;2.27;;;4.70;99.90;;;;;;5091698;28;20927;-65
2022/03/07 11:25:43;;;;;;;0.40;0.40;;;4.80;99.90;;;;;;5093913;28;20427;-65
2022/03/07 11:28:32;;;;;;;1.60;1.50;;;4.70;99.90;;;;;;5087532;28;20434;-66
2022/03/07 11:31:20;;;;;;;3.20;2.90;;;4.80;99.90;;;;;;5086927;28;20420;-66
2022/03/07 11:34:09;;;;;;;3.17;1.23;;;4.80;99.90;;;;;;5085094;28;20441;-67
2022/03/07 11:36:58;;;;;;;0.40;0.40;;;4.80;99.90;;;;;;5094905;28;20504;-66
2022/03/07 11:39:46;;;;;;;6.30;3.50;;;4.90;99.90;;;;;;5092344;28;20435;-66
2022/03/07 11:42:37;;;;;;;0.93;0.90;;;5.00;99.90;;;;;;5094201;28;20434;-66
2022/03/07 11:45:24;;;;;;;0.83;0.77;;;5.00;99.90;;;;;;5094372;28;20427;-66
2022/03/07 11:48:13;;;;;;;0.50;0.50;;;5.00;99.90;;;;;;5095193;28;20491;-66
2022/03/07 11:51:01;;;;;;;10.23;1.60;;;5.10;99.90;;;;;;5093108;28;20415;-65
2022/03/07 11:53:50;;;;;;;3.00;1.37;;;5.20;99.90;;;;;;5093792;28;20423;-66
2022/03/07 11:56:38;;;;;;;0.50;0.50;;;5.30;99.90;;;;;;5094107;28;20543;-66
2022/03/07 11:59:30;;;;;;;0.97;0.97;;;5.60;99.90;;;;;;5093826;28;20435;-66
2022/03/07 12:02:17;;;;;;;1.03;0.80;;;5.40;99.90;;;;;;5096450;28;20540;-66
2022/03/07 12:05:05;;;;;;;5.13;3.30;;;5.50;99.90;;;;;;5093842;28;20411;-65
2022/03/07 12:07:52;;;;;;;4.10;1.57;;;5.60;99.90;;;;;;5093289;28;20450;-66
2022/03/07 12:10:53;;;;;;;5.93;2.53;;;5.70;99.90;;;;;;5088667;28;20424;-65
2022/03/07 12:13:47;;;;;;;1.87;0.93;;;5.70;99.90;;;;;;5072129;28;20911;-66
2022/03/07 12:16:36;;;;;;;1.80;1.00;;;5.80;99.90;;;;;;5072929;28;20487;-65
2022/03/07 12:19:23;;;;;;;0.40;0.40;;;5.80;99.90;;;;;;5072539;28;20420;-65
2022/03/07 12:22:12;;;;;;;0.40;0.40;;;5.80;99.90;;;;;;5072684;28;20498;-65
2022/03/07 12:25:00;;;;;;;2.40;2.20;;;6.00;99.90;;;;;;5073172;28;20793;-65
2022/03/07 12:27:57;;;;;;;1.93;1.57;;;6.00;99.90;;;;;;5073454;28;20447;-66
2022/03/07 12:30:44;;;;;;;3.30;3.07;;;6.10;99.90;;;;;;5073688;28;20537;-65
2022/03/07 12:33:31;;;;;;;1.77;1.37;;;6.10;99.90;;;;;;5075708;28;20915;-65
2022/03/07 12:36:18;;;;;;;2.80;1.13;;;6.20;99.90;;;;;;5076835;28;20430;-65
2022/03/07 12:39:05;;;;;;;2.10;1.93;;;6.30;99.90;;;;;;5076059;28;20749;-66
2022/03/07 12:41:52;;;;;;;0.40;0.40;;;6.30;99.90;;;;;;5076884;28;20466;-66
2022/03/07 12:44:42;;;;;;;0.53;0.53;;;6.40;99.90;;;;;;5077489;28;20431;-65
2022/03/07 12:47:30;;;;;;;1.13;1.03;;;6.40;99.90;;;;;;5075004;28;20460;-66
2022/03/07 12:50:17;;;;;;;3.40;2.73;;;6.50;99.90;;;;;;5075988;28;20459;-66
2022/03/07 12:53:04;;;;;;;0.40;0.40;;;6.60;99.90;;;;;;5076494;28;20811;-65
2022/03/07 12:56:01;;;;;;;0.50;0.50;;;6.60;99.90;;;;;;5076118;28;20435;-65
2022/03/07 12:58:51;;;;;;;2.30;2.10;;;6.70;99.90;;;;;;5075887;28;20489;-66
2022/03/07 13:01:49;;;;;;;2.10;1.60;;;6.70;99.90;;;;;;5076713;28;21185;-66
2022/03/07 13:04:36;;;;;;;0.80;0.60;;;6.70;99.90;;;;;;5075575;28;20786;-66
2022/03/07 13:07:25;;;;;;;5.13;2.40;;;6.80;99.90;;;;;;5086236;28;20463;-66
2022/03/07 13:10:13;;;;;;;1.43;1.33;;;6.90;99.90;;;;;;5088177;28;20416;-66
2022/03/07 13:13:04;;;;;;;0.60;0.60;;;7.10;99.90;;;;;;5089904;28;20423;-66
2022/03/07 13:15:51;;;;;;;1.20;1.13;;;7.20;99.90;;;;;;5088821;28;20437;-66
2022/03/07 13:18:39;;;;;;;0.80;0.80;;;7.40;99.90;;;;;;5083825;28;20422;-66
2022/03/07 13:21:27;;;;;;;1.03;0.80;;;7.70;99.90;;;;;;5075733;28;20459;-66
2022/03/07 13:24:17;;;;;;;0.50;0.50;;;8.20;99.90;;;;;;5076882;28;20428;-66
2022/03/07 13:27:09;;;;;;;1.20;0.73;;;8.50;99.90;;;;;;5095989;28;20455;-66
2022/03/07 13:30:06;;;;;;;0.40;0.40;;;9.00;99.90;;;;;;5092618;28;20447;-66
2022/03/07 13:33:03;;;;;;;0.50;0.50;;;9.10;99.90;;;;;;5075039;28;21212;-66
2022/03/07 13:35:51;;;;;;;0.70;0.70;;;9.50;99.90;;;;;;5076185;28;20416;-66
2022/03/07 13:38:39;;;;;;;2.40;1.23;;;10.20;99.90;;;;;;5075480;28;20439;-66
2022/03/07 13:41:26;;;;;;;1.27;0.90;;;10.90;99.90;;;;;;5076003;28;20471;-66
2022/03/07 13:44:13;;;;;;;1.60;1.17;;;11.60;99.90;;;;;;5075482;28;20436;-66
2022/03/07 13:47:03;;;;;;;0.70;0.70;;;12.00;99.90;;;;;;5075771;28;20474;-66
2022/03/07 13:49:51;;;;;;;1.27;1.27;;;11.60;99.90;;;;;;5075887;28;20845;-66
2022/03/07 13:52:41;;;;;;;1.03;0.93;;;11.90;99.90;;;;;;5074925;28;20947;-66
2022/03/07 13:55:33;;;;;;;1.10;0.73;;;13.10;99.90;;;;;;5075856;28;20466;-66
2022/03/07 13:58:23;;;;;;;0.40;0.40;;;14.70;97.00;;;;;;5074262;28;20498;-66
2022/03/07 14:01:13;;;;;;;0.43;0.43;;;14.90;94.90;;;;;;5093739;28;20494;-67
2022/03/07 14:04:10;;;;;;;1.47;1.37;;;14.50;93.10;;;;;;5096074;28;20452;-67
2022/03/07 14:07:04;;;;;;;0.73;0.60;;;14.00;92.90;;;;;;5096195;28;20243;-66
2022/03/07 14:09:54;;;;;;;0.47;0.47;;;14.30;92.60;;;;;;5096275;28;20423;-66
2022/03/07 14:12:49;;;;;;;1.20;1.10;;;14.00;92.30;;;;;;5094642;28;20430;-66
2022/03/07 14:15:39;;;;;;;2.17;1.00;;;13.70;92.10;;;;;;5096060;28;20449;-66
2022/03/07 14:18:26;;;;;;;0.50;0.50;;;14.20;91.70;;;;;;5018206;28;66937;-66
2022/03/07 14:21:13;;;;;;;0.60;0.60;;;14.50;90.50;;;;;;5013274;28;117866;-67
2022/03/07 14:24:00;;;;;;;2.20;1.00;;;14.40;90.40;;;;;;5016642;28;20205;-66
2022/03/07 14:26:50;;;;;;;1.90;0.90;;;14.60;88.20;;;;;;5018945;28;20237;-66
2022/03/07 14:29:38;;;;;;;0.40;0.40;;;14.90;86.10;;;;;;5035665;28;20679;-67
2022/03/07 14:32:26;;;;;;;0.73;0.57;;;15.80;82.70;;;;;;5034854;28;20207;-67
2022/03/07 14:35:13;;;;;;;0.40;0.40;;;16.70;78.60;;;;;;5035501;28;20205;-67
2022/03/07 14:38:00;;;;;;;1.70;1.60;;;17.40;76.80;;;;;;5035815;28;20241;-68
2022/03/07 14:40:48;;;;;;;1.40;0.60;;;17.90;73.10;;;;;;5025958;28;20706;-67